METAR Data
IDs: Format: Raw Decoded Include TAF

Data at: 1346 UTC 14 Dec 2019

PAKH 141256Z AUTO 11014KT FEW033 04/00 A2948 RMK AO2 SLP984 T00390000 PWINO $
PAKH 141156Z AUTO 12011KT FEW033 04/00 A2949 RMK AO2 SLP987 70001 T00390000 10044 20033 58008 PWINO $
PAKH 141056Z AUTO 12007KT SCT030 04/01 A2950 RMK AO2 SLP992 T00390006 PWINO $
PAKH 140956Z AUTO 19011KT FEW030 OVC045 04/00 A2952 RMK AO2 SLP996 T00390000 PWINO $
PAKH 140942Z AUTO 20009KT SCT028 BKN041 OVC065 04/00 A2951 RMK AO2 PWINO $
PAKH 140856Z AUTO 22010KT OVC024 04/01 A2951 RMK AO2 SLP995 T00390006 400610033 53009 PWINO $
PAKH 140756Z AUTO 23004KT FEW011 BKN018 OVC023 04/03 A2950 RMK AO2 SLP990 T00390028 PWINO $
PAKH 140656Z AUTO 25004KT BKN017 OVC060 03/02 A2948 RMK AO2 SLP985 T00330022 PWINO $
PAKH 140646Z AUTO 30005KT SCT014 BKN019 OVC060 04/03 A2948 RMK AO2 PWINO $
PAKH 140625Z AUTO 25004KT FEW007 BKN013 OVC019 04/03 A2948 RMK AO2 PWINO $
PAKH 140618Z AUTO 25005KT BKN009 OVC017 04/03 A2948 RMK AO2 CIG 007V012 PWINO $
PAKH 140611Z AUTO 22006KT FEW011 BKN019 OVC060 04/03 A2948 RMK AO2 PWINO $
PAKH 140556Z AUTO 23004KT SCT016 OVC055 04/03 A2949 RMK AO2 SLP986 60001 T00390028 10050 20033 51015 PWINO $
PAKH 140526Z AUTO 26003KT SCT017 SCT040 OVC060 04/03 A2947 RMK AO2 PWINO $
PAKH 140456Z AUTO 24005KT BKN017 BKN023 OVC055 04/02 A2947 RMK AO2 SLP981 T00390022 PWINO $
PAKH 140440Z AUTO 24004KT SCT024 BKN043 OVC060 04/02 A2947 RMK AO2 PWINO $
PAKH 140433Z AUTO 32007KT BKN024 BKN041 OVC055 04/02 A2946 RMK AO2 PWINO $
PAKH 140356Z AUTO 33009KT BKN041 OVC055 04/02 A2946 RMK AO2 SLP977 T00440022 PWINO $
PAKH 140305Z AUTO 30013KT FEW009 SCT013 OVC055 04/02 A2944 RMK AO2 PWINO $
PAKH 140256Z AUTO 29016G21KT BKN011 OVC055 04/03 A2944 RMK AO2 CIG 009V013 SLP971 P0001 60001 T00440028 51016 PWINO $
PAKH 140234Z AUTO 28014KT BKN009 BKN050 OVC080 04/03 A2944 RMK AO2 CIG 008V013 PWINO $
PAKH 140156Z AUTO 29017KT FEW007 SCT038 OVC080 04/03 A2943 RMK AO2 SLP966 T00440033 PWINO $
PAKH 140056Z AUTO 29014KT OVC065 04/03 A2942 RMK AO2 SLP963 T00440033 PWINO $
PAKH 132356Z AUTO 30012KT OVC041 05/03 A2940 RMK AO2 SLP955 T00500033 10061 20050 51021 PWINO $
PAKH 132256Z AUTO 30013KT OVC035 06/03 A2938 RMK AO2 SLP951 T00560033 PWINO $
PAKH 132156Z AUTO 31014KT OVC031 06/03 A2935 RMK AO2 SLP941 T00560033 PWINO $
PAKH 132135Z AUTO 31016KT BKN031 BKN060 06/03 A2935 RMK AO2 PWINO $
PAKH 132056Z AUTO 31014KT SCT019 OVC029 05/03 A2933 RMK AO2 SLP934 T00500033 51035 PWINO $
PAKH 131956Z AUTO 31014KT OVC029 06/04 A2930 RMK AO2 SLP923 T00560039 PWINO $
PAKH 131911Z AUTO 31011KT BKN027 OVC060 06/03 A2927 RMK AO2 PWINO $
PAKH 131856Z AUTO 32010KT BKN030 OVC060 06/03 A2927 RMK AO2 SLP912 T00610033 PWINO $
PAKH 131556Z AUTO 00000KT OVC075 05/03 A2918 RMK AO2 SLP882 T00500033 PWINO $
PAKH 131456Z AUTO 03010KT FEW038 BKN070 OVC085 05/03 A2915 RMK AO2 SLP873 T00500033 51018 PWINO $
PAKH 131356Z AUTO 02006KT OVC042 05/03 A2914 RMK AO2 SLP869 T00500033 PWINO $
PAKH 131256Z AUTO 01010KT FEW040 OVC060 06/03 A2912 RMK AO2 SLP862 T00610028 PWINO $
PAKH 131156Z AUTO 36009KT BKN060 BKN085 OVC120 05/02 A2910 RMK AO2 SLP855 70025 T00500022 10056 20028 51014 PWINO $
PAKH 131056Z AUTO 21003KT OVC070 05/02 A2909 RMK AO2 SLP851 T00500022 PWINO $
PAKH 130956Z AUTO 17004KT OVC070 05/02 A2907 RMK AO2 SLP846 T00500022 PWINO $
PAKH 130856Z AUTO 31003KT BKN070 04/02 A2906 RMK AO2 SLP841 T00390017 400670028 53015 PWINO $
PAKH 130756Z AUTO 03003KT CLR 04/01 A2904 RMK AO2 SLP836 T00390011 PWINO $
PAKH 130656Z AUTO 36003KT CLR 03/01 A2903 RMK AO2 SLP831 T00330011 PWINO $
PAKH 130556Z AUTO 36004KT SCT110 04/02 A2902 RMK AO2 SLP827 T00440022 10061 20044 53012 PWINO $
PAKH 130456Z AUTO 03008KT OVC100 06/03 A2900 RMK AO2 SLP823 T00560028 PWINO $
PAKH 130356Z AUTO 01009KT OVC110 06/03 A2899 RMK AO2 SLP819 T00560028 PWINO $
PAKH 130256Z AUTO 04007KT BKN070 BKN090 OVC120 06/03 A2898 RMK AO2 SLP815 T00560033 53007 PWINO $
PAKH 130156Z AUTO 02005KT FEW045 06/03 A2896 RMK AO2 SLP809 T00560033 PWINO $